Time;durP1;ratioP1;P1;durP2;ratioP2;P2;SDS_P1;SDS_P2;PMS_P1;PMS_P2;Temp;Humidity;BMP_temperature;BMP_pressure;BME280_temperature;BME280_humidity;BME280_pressure;Samples;Min_cycle;Max_cycle;Signal;HPM_P1;HPM_P2
2021/09/25 00:00:07;;;;;;;;;;;;;;;11.13;49.98;95633.91;4990362;28;20371;-57
2021/09/25 00:02:33;;;;;;;;;;;;;;;11.05;50.18;95633.94;4991477;28;19909;-57
2021/09/25 00:04:58;;;;;;;;;;;;;;;11.02;49.89;95634.31;4990666;28;19928;-57
2021/09/25 00:07:23;;;;;;;;;;;;;;;10.97;49.23;95631.34;4990714;28;19936;-57
2021/09/25 00:09:48;;;;;;;;;;;;;;;10.93;49.69;95635.38;4991721;28;19922;-57
2021/09/25 00:12:14;;;;;;;;;;;;;;;10.90;49.34;95635.75;4990660;28;19924;-57
2021/09/25 00:14:39;;;;;;;;;;;;;;;10.84;50.52;95635.47;4991125;28;19980;-58
2021/09/25 00:17:08;;;;;;;;;;;;;;;10.81;50.59;95630.50;4990431;28;19921;-57
2021/09/25 00:19:33;;;;;;;;;;;;;;;10.77;50.48;95634.53;4990965;28;19920;-57
2021/09/25 00:21:58;;;;;;;;;;;;;;;10.74;49.70;95629.53;4991054;28;19913;-57
2021/09/25 00:24:24;;;;;;;;;;;;;;;10.69;50.42;95630.09;4990612;28;19914;-57
2021/09/25 00:26:49;;;;;;;;;;;;;;;10.61;50.26;95632.81;4990406;28;20060;-57
2021/09/25 00:29:14;;;;;;;;;;;;;;;10.57;50.28;95629.69;4991036;28;19914;-57
2021/09/25 00:31:39;;;;;;;;;;;;;;;10.53;50.11;95628.38;4983663;28;20327;-57
2021/09/25 00:34:05;;;;;;;;;;;;;;;10.48;51.05;95625.44;4971329;28;19964;-57
2021/09/25 00:36:30;;;;;;;;;;;;;;;10.44;50.23;95626.78;4983276;28;19925;-57
2021/09/25 00:38:55;;;;;;;;;;;;;;;10.40;50.52;95633.47;4990256;28;20371;-57
2021/09/25 00:41:20;;;;;;;;;;;;;;;10.31;51.91;95630.88;4990661;28;20339;-57
2021/09/25 00:43:46;;;;;;;;;;;;;;;10.29;51.29;95632.84;4990377;28;20181;-56
2021/09/25 00:46:12;;;;;;;;;;;;;;;10.22;51.16;95629.25;4990544;28;19925;-57
2021/09/25 00:48:37;;;;;;;;;;;;;;;10.19;51.67;95630.44;4990159;28;19928;-57
2021/09/25 00:51:02;;;;;;;;;;;;;;;10.18;51.60;95635.91;4989919;28;20311;-56
2021/09/25 00:53:28;;;;;;;;;;;;;;;10.21;50.33;95632.91;4990609;28;19910;-57
2021/09/25 00:55:53;;;;;;;;;;;;;;;10.19;50.90;95635.75;4990170;28;20001;-57
2021/09/25 00:58:18;;;;;;;;;;;;;;;10.16;51.05;95640.59;4989032;28;19909;-56
2021/09/25 01:00:43;;;;;;;;;;;;;;;10.13;50.84;95628.44;4990057;28;20060;-57
2021/09/25 01:03:09;;;;;;;;;;;;;;;10.10;50.00;95629.63;4989925;28;20023;-57
2021/09/25 01:05:34;;;;;;;;;;;;;;;10.08;50.52;95626.34;4988957;28;19924;-57
2021/09/25 01:08:00;;;;;;;;;;;;;;;9.99;50.45;95622.00;4989960;28;20361;-57
2021/09/25 01:10:26;;;;;;;;;;;;;;;9.95;49.43;95626.03;4990098;28;19918;-57
2021/09/25 01:12:51;;;;;;;;;;;;;;;9.95;49.58;95629.53;4988359;28;19913;-57
2021/09/25 01:15:16;;;;;;;;;;;;;;;9.91;49.77;95622.91;4989545;28;20386;-57
2021/09/25 01:17:41;;;;;;;;;;;;;;;9.85;49.66;95629.75;4988841;28;20013;-57
2021/09/25 01:20:07;;;;;;;;;;;;;;;9.82;50.75;95626.56;4988181;28;19920;-57
2021/09/25 01:22:32;;;;;;;;;;;;;;;9.74;50.30;95627.47;4990306;28;19918;-57
2021/09/25 01:24:58;;;;;;;;;;;;;;;9.72;50.86;95632.09;4989823;28;19964;-57
2021/09/25 01:27:23;;;;;;;;;;;;;;;9.69;50.39;95629.81;4989415;28;20302;-57
2021/09/25 01:29:48;;;;;;;;;;;;;;;9.67;50.41;95631.81;4989896;28;19968;-57
2021/09/25 01:32:13;;;;;;;;;;;;;;;9.62;50.56;95626.19;4976943;28;19918;-57
2021/09/25 01:34:39;;;;;;;;;;;;;;;9.61;52.04;95628.00;4970428;28;19925;-57
2021/09/25 01:37:04;;;;;;;;;;;;;;;9.58;53.06;95628.34;4988015;28;19925;-57
2021/09/25 01:39:30;;;;;;;;;;;;;;;9.52;52.04;95629.84;4981992;28;19930;-57
2021/09/25 01:41:56;;;;;;;;;;;;;;;9.35;52.44;95626.41;4989677;28;20007;-57
2021/09/25 01:44:22;;;;;;;;;;;;;;;9.32;53.58;95624.91;4989200;28;19968;-57
2021/09/25 01:46:48;;;;;;;;;;;;;;;9.27;55.18;95621.94;4989764;28;19914;-57
2021/09/25 01:49:13;;;;;;;;;;;;;;;9.21;53.63;95619.97;4988935;28;19991;-57
2021/09/25 01:51:38;;;;;;;;;;;;;;;9.36;54.43;95620.13;4989165;28;19913;-57
2021/09/25 01:54:05;;;;;;;;;;;;;;;9.40;52.47;95617.94;4989324;28;19924;-57
2021/09/25 01:56:30;;;;;;;;;;;;;;;9.38;52.27;95619.94;4988732;28;19949;-57
2021/09/25 01:58:55;;;;;;;;;;;;;;;9.38;50.96;95612.78;4988513;28;20003;-57
2021/09/25 02:01:20;;;;;;;;;;;;;;;9.38;50.79;95617.28;4989219;28;19973;-56
2021/09/25 02:03:46;;;;;;;;;;;;;;;9.35;50.42;95620.28;4988737;28;19921;-56
2021/09/25 02:06:11;;;;;;;;;;;;;;;9.29;49.63;95624.44;4989524;28;20401;-56
2021/09/25 02:08:37;;;;;;;;;;;;;;;9.29;50.78;95619.13;4988571;28;20376;-56
2021/09/25 02:11:02;;;;;;;;;;;;;;;9.30;51.54;95618.13;4988677;28;19917;-56
2021/09/25 02:13:28;;;;;;;;;;;;;;;9.20;51.35;95621.81;4989086;28;19914;-56
2021/09/25 02:15:53;;;;;;;;;;;;;;;9.15;53.22;95628.63;4987066;28;19932;-56
2021/09/25 02:18:18;;;;;;;;;;;;;;;9.02;52.91;95634.44;4988680;28;19972;-56
2021/09/25 02:20:43;;;;;;;;;;;;;;;8.94;52.24;95641.38;4987062;28;20367;-56
2021/09/25 02:23:09;;;;;;;;;;;;;;;8.77;53.63;95624.63;4988142;28;19956;-56
2021/09/25 02:25:34;;;;;;;;;;;;;;;8.58;56.70;95633.75;4988858;28;19976;-56
2021/09/25 02:27:59;;;;;;;;;;;;;;;8.50;56.53;95626.63;4988317;28;19929;-56
2021/09/25 02:30:26;;;;;;;;;;;;;;;8.74;56.99;95621.50;4988904;28;20016;-56
2021/09/25 02:32:52;;;;;;;;;;;;;;;8.98;55.75;95615.38;4988197;28;20414;-56
2021/09/25 02:35:17;;;;;;;;;;;;;;;9.17;54.31;95616.00;4988066;28;19918;-56
2021/09/25 02:37:42;;;;;;;;;;;;;;;9.30;54.30;95623.44;4986987;28;19918;-56
2021/09/25 02:40:08;;;;;;;;;;;;;;;9.41;53.40;95620.41;4982618;28;19972;-56
2021/09/25 02:42:34;;;;;;;;;;;;;;;9.48;52.07;95612.59;4988636;28;19945;-56
2021/09/25 02:44:59;;;;;;;;;;;;;;;9.46;51.85;95619.91;4988622;28;19940;-56
2021/09/25 02:47:24;;;;;;;;;;;;;;;9.42;51.09;95611.44;4988324;28;19914;-56
2021/09/25 02:49:49;;;;;;;;;;;;;;;9.39;51.23;95616.28;4988772;28;19965;-56
2021/09/25 02:52:15;;;;;;;;;;;;;;;9.33;50.40;95618.63;4988188;28;19918;-56
2021/09/25 02:54:40;;;;;;;;;;;;;;;9.32;50.59;95614.28;4988591;28;19921;-56
2021/09/25 02:57:05;;;;;;;;;;;;;;;9.26;50.61;95615.00;4987545;28;19917;-56
2021/09/25 02:59:30;;;;;;;;;;;;;;;9.19;50.18;95616.66;4988098;28;19917;-56
2021/09/25 03:01:56;;;;;;;;;;;;;;;9.13;51.20;95619.97;4988399;28;19980;-56
2021/09/25 03:04:21;;;;;;;;;;;;;;;9.06;50.13;95617.19;4988142;28;20166;-57
2021/09/25 03:06:48;;;;;;;;;;;;;;;9.01;48.78;95622.16;4988144;28;19916;-57
2021/09/25 03:09:13;;;;;;;;;;;;;;;8.99;50.70;95616.19;4987611;28;19918;-57
2021/09/25 03:11:38;;;;;;;;;;;;;;;8.98;50.69;95611.88;4987789;28;19992;-57
2021/09/25 03:14:03;;;;;;;;;;;;;;;8.93;51.81;95609.69;4987981;28;19975;-57
2021/09/25 03:16:29;;;;;;;;;;;;;;;8.91;52.51;95609.84;4987813;28;20004;-57
2021/09/25 03:18:54;;;;;;;;;;;;;;;8.85;52.60;95607.03;4988040;28;19970;-57
2021/09/25 03:21:20;;;;;;;;;;;;;;;8.71;53.92;95609.38;4987754;28;20449;-57
2021/09/25 03:23:45;;;;;;;;;;;;;;;8.77;52.69;95605.25;4987834;28;20036;-57
2021/09/25 03:26:10;;;;;;;;;;;;;;;8.77;51.46;95610.56;4988379;28;19966;-57
2021/09/25 03:28:35;;;;;;;;;;;;;;;8.76;51.69;95619.47;4987028;28;19986;-56
2021/09/25 03:31:01;;;;;;;;;;;;;;;8.72;52.07;95623.47;4988028;28;20032;-57
2021/09/25 03:33:26;;;;;;;;;;;;;;;8.67;50.13;95616.84;4988160;28;19974;-57
2021/09/25 03:35:51;;;;;;;;;;;;;;;8.67;51.61;95621.34;4987644;28;20467;-57
2021/09/25 03:38:21;;;;;;;;;;;;;;;8.63;51.67;95625.28;4987951;28;20055;-57
2021/09/25 03:40:46;;;;;;;;;;;;;;;8.63;52.47;95630.59;4987649;28;20022;-57
2021/09/25 03:43:12;;;;;;;;;;;;;;;8.55;52.60;95624.31;4987653;28;20025;-57
2021/09/25 03:45:37;;;;;;;;;;;;;;;8.61;54.40;95625.47;4987710;28;19967;-57
2021/09/25 03:48:05;;;;;;;;;;;;;;;8.56;54.27;95619.81;4986171;28;19986;-57
2021/09/25 03:50:30;;;;;;;;;;;;;;;8.61;53.76;95621.97;4987759;28;19967;-57
2021/09/25 03:52:55;;;;;;;;;;;;;;;8.63;52.84;95619.97;4987358;28;19996;-57
2021/09/25 03:55:20;;;;;;;;;;;;;;;8.66;53.76;95620.50;4987387;28;20055;-57
2021/09/25 03:57:46;;;;;;;;;;;;;;;8.63;52.73;95626.13;4987436;28;19985;-57
2021/09/25 04:00:11;;;;;;;;;;;;;;;8.65;53.30;95623.31;4987578;28;19993;-57
2021/09/25 04:02:37;;;;;;;;;;;;;;;8.63;52.10;95619.97;4987561;28;19965;-57
2021/09/25 04:05:02;;;;;;;;;;;;;;;8.62;52.06;95619.16;4987550;28;19985;-57
2021/09/25 04:07:27;;;;;;;;;;;;;;;8.62;52.23;95620.97;4987099;28;19981;-58
2021/09/25 04:09:52;;;;;;;;;;;;;;;8.61;53.04;95624.63;4987674;28;19999;-57
2021/09/25 04:12:18;;;;;;;;;;;;;;;8.56;51.80;95623.31;4986918;28;20374;-57
2021/09/25 04:14:43;;;;;;;;;;;;;;;8.55;51.22;95618.16;4987469;28;19994;-57
2021/09/25 04:17:08;;;;;;;;;;;;;;;8.53;51.58;95623.63;4987103;28;20096;-58
2021/09/25 04:19:33;;;;;;;;;;;;;;;8.51;51.08;95628.28;4987149;28;19985;-57
2021/09/25 04:21:59;;;;;;;;;;;;;;;8.47;51.26;95628.78;4987454;28;19971;-57
2021/09/25 04:24:25;;;;;;;;;;;;;;;8.41;50.54;95625.78;4987163;28;20002;-57
2021/09/25 04:26:50;;;;;;;;;;;;;;;8.43;50.63;95622.94;4987434;28;20020;-57
2021/09/25 04:29:15;;;;;;;;;;;;;;;8.51;50.04;95630.94;4986835;28;20091;-57
2021/09/25 04:31:41;;;;;;;;;;;;;;;8.63;51.01;95634.09;4987000;28;19985;-57
2021/09/25 04:34:06;;;;;;;;;;;;;;;8.72;51.70;95628.78;4987784;28;19966;-57
2021/09/25 04:36:32;;;;;;;;;;;;;;;8.80;51.33;95632.28;4986798;28;19996;-57
2021/09/25 04:38:57;;;;;;;;;;;;;;;8.92;52.26;95635.44;4986050;28;19972;-57
2021/09/25 04:41:22;;;;;;;;;;;;;;;9.10;51.44;95633.59;4990162;28;20513;-57
2021/09/25 04:43:48;;;;;;;;;;;;;;;9.26;51.53;95636.25;4990805;28;20048;-57
2021/09/25 04:46:13;;;;;;;;;;;;;;;9.40;51.22;95631.22;4991150;28;19993;-56
2021/09/25 04:48:38;;;;;;;;;;;;;;;9.54;51.16;95630.53;4990601;28;19994;-56
2021/09/25 04:51:03;;;;;;;;;;;;;;;9.77;51.41;95634.25;4990352;28;19965;-56
2021/09/25 04:53:30;;;;;;;;;;;;;;;9.88;50.83;95633.88;4989285;28;19970;-56
2021/09/25 04:55:56;;;;;;;;;;;;;;;10.01;50.34;95641.31;4990370;28;20454;-56
2021/09/25 04:58:27;;;;;;;;;;;;;;;10.16;50.11;95648.59;4990529;28;20006;-56
2021/09/25 05:00:53;;;;;;;;;;;;;;;10.25;49.78;95636.88;4990217;28;19990;-56
2021/09/25 05:03:18;;;;;;;;;;;;;;;10.35;49.58;95634.84;4990266;28;20422;-56
2021/09/25 05:05:43;;;;;;;;;;;;;;;10.46;49.31;95627.41;4990426;28;20313;-56
2021/09/25 05:08:08;;;;;;;;;;;;;;;10.53;49.52;95630.19;4990518;28;20084;-56
2021/09/25 05:10:34;;;;;;;;;;;;;;;10.54;49.18;95624.69;4990329;28;20020;-56
2021/09/25 05:12:59;;;;;;;;;;;;;;;10.60;49.40;95629.31;4989664;28;20077;-56
2021/09/25 05:15:24;;;;;;;;;;;;;;;10.69;49.75;95621.28;4989528;28;20467;-56
2021/09/25 05:17:49;;;;;;;;;;;;;;;10.76;49.51;95627.53;4990204;28;20193;-56
2021/09/25 05:20:15;;;;;;;;;;;;;;;10.82;49.48;95618.00;4989874;28;19986;-56
2021/09/25 05:22:40;;;;;;;;;;;;;;;10.93;48.89;95622.06;4990788;28;20072;-56
2021/09/25 05:25:06;;;;;;;;;;;;;;;10.97;48.85;95620.69;4989697;28;20069;-56
2021/09/25 05:27:31;;;;;;;;;;;;;;;11.03;48.63;95619.16;4989786;28;19917;-56
2021/09/25 05:29:56;;;;;;;;;;;;;;;11.05;48.21;95625.94;4990179;28;19921;-56
2021/09/25 05:32:21;;;;;;;;;;;;;;;11.05;48.62;95628.63;4986679;28;20391;-56
2021/09/25 05:34:47;;;;;;;;;;;;;;;11.13;48.66;95625.91;4989925;28;20455;-56
2021/09/25 05:37:14;;;;;;;;;;;;;;;11.17;48.53;95630.88;4989319;28;20057;-56
2021/09/25 05:39:39;;;;;;;;;;;;;;;11.24;48.57;95629.13;4981990;28;19997;-56
2021/09/25 05:42:05;;;;;;;;;;;;;;;11.34;48.24;95624.38;4990270;28;19970;-56
2021/09/25 05:44:30;;;;;;;;;;;;;;;11.35;48.39;95620.69;4989392;28;19973;-56
2021/09/25 05:46:55;;;;;;;;;;;;;;;11.39;48.30;95632.66;4989811;28;19913;-56
2021/09/25 05:49:21;;;;;;;;;;;;;;;11.44;48.34;95621.44;4989553;28;19924;-56
2021/09/25 05:51:46;;;;;;;;;;;;;;;11.53;48.37;95630.19;4988731;28;19921;-56
2021/09/25 05:54:11;;;;;;;;;;;;;;;11.50;48.55;95635.88;4989936;28;19954;-56
2021/09/25 05:56:36;;;;;;;;;;;;;;;11.57;48.27;95631.47;4988571;28;20379;-56
2021/09/25 05:59:02;;;;;;;;;;;;;;;11.66;48.27;95626.03;4986279;28;20063;-56
2021/09/25 06:01:27;;;;;;;;;;;;;;;11.72;49.12;95633.28;4989667;28;20041;-56
2021/09/25 06:03:52;;;;;;;;;;;;;;;11.79;48.85;95634.22;4988928;28;19993;-56
2021/09/25 06:06:17;;;;;;;;;;;;;;;11.90;48.53;95633.72;4989517;28;20556;-56
2021/09/25 06:08:43;;;;;;;;;;;;;;;11.96;48.06;95634.84;4989033;28;20033;-56
2021/09/25 06:11:08;;;;;;;;;;;;;;;12.01;47.97;95628.94;4988926;28;19970;-56
2021/09/25 06:13:33;;;;;;;;;;;;;;;12.05;48.81;95635.56;4989378;28;20074;-56
2021/09/25 06:15:58;;;;;;;;;;;;;;;12.18;48.75;95639.44;4981856;28;19996;-56
2021/09/25 06:18:24;;;;;;;;;;;;;;;12.27;48.57;95635.63;4989120;28;19990;-56
2021/09/25 06:20:49;;;;;;;;;;;;;;;12.36;48.93;95645.19;4968274;28;19926;-56
2021/09/25 06:23:14;;;;;;;;;;;;;;;12.44;48.70;95636.22;4955962;28;20446;-56
2021/09/25 06:25:40;;;;;;;;;;;;;;;12.54;48.64;95641.25;4984806;28;19945;-56
2021/09/25 06:28:05;;;;;;;;;;;;;;;12.72;47.76;95634.66;4984872;28;19976;-56
2021/09/25 06:30:30;;;;;;;;;;;;;;;12.90;47.92;95635.03;4985274;28;19921;-56
2021/09/25 06:32:56;;;;;;;;;;;;;;;12.96;49.30;95627.25;4984340;28;19918;-56
2021/09/25 06:35:21;;;;;;;;;;;;;;;13.10;48.34;95631.72;4983822;28;19979;-56
2021/09/25 06:37:46;;;;;;;;;;;;;;;13.20;47.14;95623.38;4971158;28;19970;-56
2021/09/25 06:40:12;;;;;;;;;;;;;;;13.10;48.96;95629.03;4979076;28;20040;-56
2021/09/25 06:42:37;;;;;;;;;;;;;;;12.98;49.61;95636.72;4984649;28;20478;-56
2021/09/25 06:45:03;;;;;;;;;;;;;;;13.21;48.99;95633.03;4975522;28;20494;-56
2021/09/25 06:47:29;;;;;;;;;;;;;;;13.40;48.12;95644.06;4980085;28;19917;-56
2021/09/25 06:49:54;;;;;;;;;;;;;;;13.50;48.30;95649.06;4984524;28;20441;-56
2021/09/25 06:52:19;;;;;;;;;;;;;;;13.64;48.31;95650.81;4983934;28;19972;-56
2021/09/25 06:54:44;;;;;;;;;;;;;;;13.86;47.43;95653.38;4984538;28;20016;-56
2021/09/25 06:57:10;;;;;;;;;;;;;;;14.03;47.54;95643.19;4979767;28;19929;-56
2021/09/25 06:59:36;;;;;;;;;;;;;;;14.20;46.91;95648.19;4984047;28;20623;-56
2021/09/25 07:02:01;;;;;;;;;;;;;;;14.36;46.99;95648.88;4984148;28;20279;-56
2021/09/25 07:04:26;;;;;;;;;;;;;;;14.45;46.82;95648.47;4983936;28;19937;-56
2021/09/25 07:06:52;;;;;;;;;;;;;;;14.52;46.54;95650.38;4984095;28;19922;-56
2021/09/25 07:09:17;;;;;;;;;;;;;;;14.58;46.74;95641.50;4984015;28;19917;-56
2021/09/25 07:11:42;;;;;;;;;;;;;;;14.66;46.60;95646.69;4983475;28;19968;-56
2021/09/25 07:14:07;;;;;;;;;;;;;;;14.72;45.60;95648.53;4982621;28;20147;-56
2021/09/25 07:16:33;;;;;;;;;;;;;;;14.90;46.08;95651.69;4972739;28;20434;-56
2021/09/25 07:18:58;;;;;;;;;;;;;;;14.82;46.34;95650.03;4983067;28;19925;-56
2021/09/25 07:21:23;;;;;;;;;;;;;;;14.68;45.57;95646.47;4983630;28;20218;-56
2021/09/25 07:23:48;;;;;;;;;;;;;;;14.76;46.72;95645.50;4983565;28;20300;-56
2021/09/25 07:26:14;;;;;;;;;;;;;;;14.51;47.23;95651.41;4982369;28;20236;-56
2021/09/25 07:28:39;;;;;;;;;;;;;;;14.91;46.60;95645.28;4981918;28;19918;-56
2021/09/25 07:31:06;;;;;;;;;;;;;;;14.70;46.71;95658.66;4979869;28;19921;-56
2021/09/25 07:33:31;;;;;;;;;;;;;;;14.41;47.09;95668.66;4983800;28;20064;-56
2021/09/25 07:35:56;;;;;;;;;;;;;;;14.18;47.81;95672.47;4983419;28;19921;-56
2021/09/25 07:38:21;;;;;;;;;;;;;;;14.58;47.01;95671.81;4976930;28;19918;-56
2021/09/25 07:40:47;;;;;;;;;;;;;;;14.64;46.59;95667.50;4982944;28;20278;-56
2021/09/25 07:43:12;;;;;;;;;;;;;;;14.12;48.05;95664.44;4983584;28;19924;-56
2021/09/25 07:45:37;;;;;;;;;;;;;;;14.62;46.91;95668.72;4984120;28;19984;-56
2021/09/25 07:48:03;;;;;;;;;;;;;;;14.98;46.07;95665.72;4983065;28;20440;-56
2021/09/25 07:50:28;;;;;;;;;;;;;;;14.58;45.94;95676.31;4983844;28;19914;-56
2021/09/25 07:52:56;;;;;;;;;;;;;;;15.00;45.32;95670.03;4982134;28;19925;-56
2021/09/25 07:55:22;;;;;;;;;;;;;;;15.35;45.02;95673.34;4982680;28;19926;-56
2021/09/25 07:57:47;;;;;;;;;;;;;;;15.75;43.75;95669.81;4983053;28;19917;-56
2021/09/25 08:00:13;;;;;;;;;;;;;;;15.31;45.04;95679.34;4983321;28;20393;-56
2021/09/25 08:02:40;;;;;;;;;;;;;;;14.05;48.50;95675.13;4982051;28;19940;-56
2021/09/25 08:05:05;;;;;;;;;;;;;;;14.72;46.13;95680.69;4981687;28;19921;-56
2021/09/25 08:07:31;;;;;;;;;;;;;;;14.42;47.38;95678.34;4982969;28;20269;-56
2021/09/25 08:09:56;;;;;;;;;;;;;;;15.07;46.08;95684.28;4983429;28;19925;-56
2021/09/25 08:12:21;;;;;;;;;;;;;;;15.43;45.13;95685.72;4982936;28;20375;-56
2021/09/25 08:14:47;;;;;;;;;;;;;;;15.79;44.25;95672.06;4983961;28;20369;-56
2021/09/25 08:17:12;;;;;;;;;;;;;;;15.37;45.59;95681.19;4986857;28;19928;-56
2021/09/25 08:19:37;;;;;;;;;;;;;;;15.09;45.78;95680.34;4986788;28;19981;-56
2021/09/25 08:22:03;;;;;;;;;;;;;;;16.04;43.95;95682.16;4987247;28;20226;-56
2021/09/25 08:24:28;;;;;;;;;;;;;;;15.49;45.28;95692.94;4986920;28;19917;-56
2021/09/25 08:26:55;;;;;;;;;;;;;;;14.94;46.08;95690.44;4986729;28;19917;-55
2021/09/25 08:29:21;;;;;;;;;;;;;;;15.18;45.13;95697.06;4984992;28;20012;-55
2021/09/25 08:31:46;;;;;;;;;;;;;;;13.32;50.60;95695.81;4986625;28;20008;-55
2021/09/25 08:34:13;;;;;;;;;;;;;;;15.34;46.87;95695.03;4987414;28;20241;-56
2021/09/25 08:36:38;;;;;;;;;;;;;;;16.41;44.34;95697.75;4986759;28;20411;-56
2021/09/25 08:39:03;;;;;;;;;;;;;;;16.38;43.79;95709.72;4978294;28;19961;-56
2021/09/25 08:41:29;;;;;;;;;;;;;;;15.35;46.29;95707.38;4986299;28;20371;-56
2021/09/25 08:43:54;;;;;;;;;;;;;;;16.95;43.58;95709.03;4984455;28;20056;-57
2021/09/25 08:46:19;;;;;;;;;;;;;;;17.14;42.50;95707.25;4986987;28;20069;-56
2021/09/25 08:48:44;;;;;;;;;;;;;;;17.49;41.81;95713.19;4986056;28;20025;-56
2021/09/25 08:51:11;;;;;;;;;;;;;;;17.30;42.11;95715.81;4986183;28;20409;-56
2021/09/25 08:53:36;;;;;;;;;;;;;;;17.85;41.36;95724.28;4986586;28;19914;-56
2021/09/25 08:56:01;;;;;;;;;;;;;;;17.33;42.51;95714.59;4985858;28;19980;-55
2021/09/25 08:58:27;;;;;;;;;;;;;;;17.77;41.27;95711.91;4986530;28;20377;-56
2021/09/25 09:00:52;;;;;;;;;;;;;;;18.39;40.41;95713.75;4985252;28;19924;-55
2021/09/25 09:03:19;;;;;;;;;;;;;;;18.28;39.36;95723.44;4985841;28;20146;-55
2021/09/25 09:05:44;;;;;;;;;;;;;;;18.31;39.55;95717.59;4986659;28;19924;-55
2021/09/25 09:08:09;;;;;;;;;;;;;;;17.44;41.19;95724.63;4985978;28;19917;-55
2021/09/25 09:10:35;;;;;;;;;;;;;;;17.30;41.36;95728.47;4986069;28;19917;-55
2021/09/25 09:13:00;;;;;;;;;;;;;;;17.74;40.66;95720.47;4985694;28;19918;-55
2021/09/25 09:15:38;;;;;;;;;;;;;;;17.85;40.70;95718.91;4985665;28;20520;-56
2021/09/25 09:18:04;;;;;;;;;;;;;;;17.96;40.21;95720.88;4986094;28;19948;-56
2021/09/25 09:20:29;;;;;;;;;;;;;;;17.95;40.40;95721.91;4985675;28;19918;-56
2021/09/25 09:23:10;;;;;;;;;;;;;;;17.69;41.60;95726.50;4985667;28;19918;-56
2021/09/25 09:25:35;;;;;;;;;;;;;;;17.00;42.77;95732.59;4985816;28;20001;-56
2021/09/25 09:28:01;;;;;;;;;;;;;;;17.27;42.59;95727.84;4984483;28;19992;-56
2021/09/25 09:30:26;;;;;;;;;;;;;;;17.39;41.93;95724.47;4984859;28;20769;-56
2021/09/25 09:32:51;;;;;;;;;;;;;;;17.78;40.99;95721.66;4984538;28;19922;-56
2021/09/25 09:35:18;;;;;;;;;;;;;;;17.76;41.42;95716.50;4984525;28;19917;-56
2021/09/25 09:37:47;;;;;;;;;;;;;;;17.48;41.33;95717.78;4983534;28;19925;-55
2021/09/25 09:40:14;;;;;;;;;;;;;;;17.24;41.60;95722.91;4979094;28;20366;-55
2021/09/25 09:42:42;;;;;;;;;;;;;;;17.56;42.07;95715.84;4983395;28;19929;-55
2021/09/25 09:45:08;;;;;;;;;;;;;;;17.03;42.73;95724.06;4984012;28;20072;-55
2021/09/25 09:47:40;;;;;;;;;;;;;;;16.93;42.58;95721.84;4984367;28;19917;-55
2021/09/25 09:50:06;;;;;;;;;;;;;;;17.73;41.46;95713.41;4983302;28;20425;-55
2021/09/25 09:52:31;;;;;;;;;;;;;;;17.79;40.70;95717.91;4982206;28;20339;-55
2021/09/25 09:54:56;;;;;;;;;;;;;;;17.67;40.83;95712.41;4983197;28;19914;-55
2021/09/25 09:57:22;;;;;;;;;;;;;;;17.92;40.14;95712.41;4983918;28;19918;-55
2021/09/25 09:59:48;;;;;;;;;;;;;;;17.45;40.70;95704.75;4984402;28;19928;-55
2021/09/25 10:02:14;;;;;;;;;;;;;;;17.18;41.34;95707.66;4982529;28;19930;-55
2021/09/25 10:04:39;;;;;;;;;;;;;;;18.41;39.29;95700.91;4984159;28;20387;-55
2021/09/25 10:07:05;;;;;;;;;;;;;;;18.64;38.58;95695.88;4984188;28;20378;-55
2021/09/25 10:09:31;;;;;;;;;;;;;;;18.91;37.72;95707.13;4964732;28;19918;-55
2021/09/25 10:11:57;;;;;;;;;;;;;;;19.08;37.62;95699.19;4971164;28;20538;-55
2021/09/25 10:14:23;;;;;;;;;;;;;;;19.13;36.68;95700.34;4983827;28;20016;-55
2021/09/25 10:16:49;;;;;;;;;;;;;;;19.30;36.73;95703.25;4983623;28;19985;-55
2021/09/25 10:19:15;;;;;;;;;;;;;;;19.46;35.57;95704.44;4983559;28;20471;-55
2021/09/25 10:21:41;;;;;;;;;;;;;;;19.28;35.91;95708.06;4984659;28;19914;-55
2021/09/25 10:24:18;;;;;;;;;;;;;;;19.03;36.46;95709.00;4984035;28;19945;-55
2021/09/25 10:26:44;;;;;;;;;;;;;;;19.15;37.35;95712.59;4984619;28;20528;-55
2021/09/25 10:29:10;;;;;;;;;;;;;;;19.29;37.82;95699.75;4984043;28;19945;-56
2021/09/25 10:31:35;;;;;;;;;;;;;;;18.92;37.63;95703.38;4984070;28;19968;-56
2021/09/25 10:34:05;;;;;;;;;;;;;;;18.88;38.02;95706.75;4984068;28;19948;-56
2021/09/25 10:36:50;;;;;;;;;;;;;;;19.15;37.63;95704.50;4984256;28;19921;-56
2021/09/25 10:39:23;;;;;;;;;;;;;;;19.85;35.69;95699.41;4975490;28;20076;-56
2021/09/25 10:41:48;;;;;;;;;;;;;;;20.07;36.23;95689.91;4984459;28;19961;-56
2021/09/25 10:44:30;;;;;;;;;;;;;;;20.44;33.88;95694.16;4983099;28;19961;-55
2021/09/25 10:47:05;;;;;;;;;;;;;;;20.56;34.21;95692.25;4976223;28;19922;-55
2021/09/25 10:49:40;;;;;;;;;;;;;;;20.49;33.38;95691.56;4978564;28;19922;-55
2021/09/25 10:52:05;;;;;;;;;;;;;;;21.17;34.78;95692.81;4983697;28;19928;-55
2021/09/25 10:54:30;;;;;;;;;;;;;;;20.75;35.03;95694.78;4983532;28;20294;-57
2021/09/25 10:56:57;;;;;;;;;;;;;;;21.23;33.21;95699.94;4980838;28;19965;-58
2021/09/25 10:59:22;;;;;;;;;;;;;;;21.49;33.21;95697.72;4983651;28;19921;-57
2021/09/25 11:01:47;;;;;;;;;;;;;;;21.66;31.86;95696.88;4984273;28;20397;-59
2021/09/25 11:04:19;;;;;;;;;;;;;;;21.84;32.33;95691.19;4981656;28;20492;-58
2021/09/25 11:06:48;;;;;;;;;;;;;;;22.48;31.24;95685.50;4984356;28;19922;-58
2021/09/25 11:09:32;;;;;;;;;;;;;;;22.79;30.34;95667.72;4983442;28;19917;-58
2021/09/25 11:11:58;;;;;;;;;;;;;;;22.72;30.82;95677.13;4982648;28;19950;-57
2021/09/25 11:14:27;;;;;;;;;;;;;;;23.38;29.89;95681.56;4983129;28;19925;-58
2021/09/25 11:16:58;;;;;;;;;;;;;;;22.90;29.15;95684.09;4968800;28;20016;-58
2021/09/25 11:19:24;;;;;;;;;;;;;;;21.41;32.33;95679.16;4977540;28;20439;-58
2021/09/25 11:21:58;;;;;;;;;;;;;;;21.55;31.92;95685.06;4961147;28;19917;-58
2021/09/25 11:24:24;;;;;;;;;;;;;;;22.40;30.07;95674.03;4983366;28;20454;-58
2021/09/25 11:26:49;;;;;;;;;;;;;;;22.38;29.85;95678.06;4983533;28;19918;-58
2021/09/25 11:29:14;;;;;;;;;;;;;;;22.99;29.39;95677.13;4964081;28;19937;-58
2021/09/25 11:31:40;;;;;;;;;;;;;;;23.11;28.67;95673.44;4967352;28;19925;-58
2021/09/25 11:34:24;;;;;;;;;;;;;;;23.01;28.94;95671.44;4965737;28;19926;-58
2021/09/25 11:36:50;;;;;;;;;;;;;;;22.88;29.71;95664.53;4958706;28;20012;-58
2021/09/25 11:39:19;;;;;;;;;;;;;;;22.69;30.31;95670.31;4960621;28;20012;-58
2021/09/25 11:41:45;;;;;;;;;;;;;;;22.49;30.95;95668.16;4981575;28;20276;-58
2021/09/25 11:44:10;;;;;;;;;;;;;;;22.48;31.07;95667.34;4982098;28;19929;-59
2021/09/25 11:46:35;;;;;;;;;;;;;;;22.72;29.69;95667.09;4981939;28;20327;-58
2021/09/25 11:49:00;;;;;;;;;;;;;;;21.33;32.22;95664.97;4982630;28;19917;-59
2021/09/25 11:51:26;;;;;;;;;;;;;;;22.08;31.70;95661.19;4972346;28;19926;-59
2021/09/25 11:53:56;;;;;;;;;;;;;;;23.06;31.14;95657.91;4980129;28;19973;-59
2021/09/25 11:56:28;;;;;;;;;;;;;;;23.28;29.86;95657.84;4981412;28;19922;-59
2021/09/25 11:58:53;;;;;;;;;;;;;;;23.58;29.61;95654.81;4982537;28;20036;-59
2021/09/25 12:01:18;;;;;;;;;;;;;;;23.98;28.77;95650.72;4983402;28;19921;-59
2021/09/25 12:03:43;;;;;;;;;;;;;;;22.52;30.17;95649.50;4969184;28;19926;-59
2021/09/25 12:06:09;;;;;;;;;;;;;;;23.56;30.08;95658.59;4982598;28;19996;-58
2021/09/25 12:08:34;;;;;;;;;;;;;;;23.77;29.18;95660.66;4968529;28;20346;-59
2021/09/25 12:10:59;;;;;;;;;;;;;;;23.77;29.30;95644.34;4963573;28;20196;-59
2021/09/25 12:13:31;;;;;;;;;;;;;;;24.37;28.53;95644.09;4963974;28;20004;-59
2021/09/25 12:15:57;;;;;;;;;;;;;;;24.30;27.98;95636.16;4960947;28;20009;-59
2021/09/25 12:18:23;;;;;;;;;;;;;;;24.74;27.92;95633.34;4963427;28;19918;-59
2021/09/25 12:20:51;;;;;;;;;;;;;;;25.29;27.83;95636.38;4962534;28;19922;-59
2021/09/25 12:23:21;;;;;;;;;;;;;;;25.94;26.93;95628.66;4963153;28;19921;-59
2021/09/25 12:25:46;;;;;;;;;;;;;;;26.06;26.92;95634.66;4963213;28;20387;-58
2021/09/25 12:28:30;;;;;;;;;;;;;;;26.67;25.98;95629.19;4961486;28;20025;-58
2021/09/25 12:30:56;;;;;;;;;;;;;;;26.49;25.32;95634.19;4962654;28;19965;-59
2021/09/25 12:33:22;;;;;;;;;;;;;;;26.93;25.12;95633.66;4962458;28;20421;-60
2021/09/25 12:35:57;;;;;;;;;;;;;;;26.81;25.56;95631.31;4961617;28;19922;-60
2021/09/25 12:38:26;;;;;;;;;;;;;;;26.77;25.31;95631.03;4962532;28;20413;-60
2021/09/25 12:40:51;;;;;;;;;;;;;;;27.35;23.88;95631.44;4962472;28;19959;-60
2021/09/25 12:43:19;;;;;;;;;;;;;;;27.25;25.10;95624.16;4960938;28;19953;-60